Shaw, Missouri
Current Conditions -  °F | °C
As of 10:54 PM on Thursday 25 Dec 2014 (Local Time) from KCOU Reporting Station
Clear Clear  
Wind Chill: 38°   Ceiling: Unl
Heat Index: 44°   Visibility: 10mi
Dew Point: 31°   Wind: 12mph
Humidity: 60%   Direction: 170°S
Pressure: 29.92"   Gusts: NA
Location:  39.0235°N, 92.2896°W
Report Text: KCOU 260454Z 17010KT 10SM CLR 07/M01 A2992 RMK AO2 SLP133 T00671006
Loading
Personal Weather Stations






























Interactive Weather Map New forecast layout! Learn more

10-Day Weather Forecast

Advertisements
Track Severe Weather on mobile